الصفحة الرئيسية
METAR-TAF:

METAR-TAF

مطار :

Mataram, إندونيسيا

دائرة عرض: 08-45-29S, خط طول: 116-16-35E, ارتفاع: 97 متر

مراقبة الطقس الحالي

تاريخ ووقت الإصدار 33 دقيقة قبل الساعة 20:00UTC
رياح هادئة
درجة الحرارة 25°درجة مئوية
الرطوبة 94%
ضغط 1013 hPa
الرؤية: 6000 متر
غيوم متفرقة على ارتفاع 1600 قدم

METAR: WADL 252000Z 00000KT 6000 SCT016 25/24 Q1013 NOSIG

زمن: 03:33 (20:33 UTC)

توقعات

تاريخ ووقت الإصدار 3ساعات و 33 دقيقة قبل الساعة 17:00UTC
التوقعات صالحة من25 الساعة 18 UTC إلى 26 الساعة 18 UTC
ريح عقدة من الشمال
الرؤية: 7000 متر
غيوم متفرقة على ارتفاع 1600 قدم

TAF: WADL 251700Z 2518/2618 00000KT 7000 SCT016

أرصاد الطقس والتوقعات من أكثر من 4000 مطار (تقارير الطقس للمطار METAR والتنبؤ بالطقس بالمطارTAF).

المحطات المتاحة هي النقط الصفراء والحمراء على الخريطة.

حرك المؤشر فوق النقطة لمعرفة اسم المحطة.

ثم انقر لمعرفة أرصاد وتوقعات الطقس.

لتغيير الخارطة: اضغط على الأزرار الخضراء مع رمز الصليب الأسود للتكبير. على الزر الأخضر مع شرطة للتصغير، أو على الأسهم الخضراء للخرائط المجاورة.


METAR-TAF: